createdAt,value
2019-03-09T00:00:09.737Z,52.39
2019-03-09T00:02:36.038Z,52.71
2019-03-09T00:05:02.382Z,52.96
2019-03-09T00:07:28.664Z,52.74
2019-03-09T00:09:54.969Z,53.02
2019-03-09T00:12:21.292Z,53.28
2019-03-09T00:14:47.591Z,53.51
2019-03-09T00:17:13.972Z,53.31
2019-03-09T00:19:40.241Z,53.70
2019-03-09T00:22:06.550Z,55.18
2019-03-09T00:24:32.859Z,54.40
2019-03-09T00:26:59.169Z,54.25
2019-03-09T00:29:25.504Z,54.27
2019-03-09T00:31:51.796Z,54.81
2019-03-09T00:34:18.119Z,54.85
2019-03-09T00:36:44.423Z,55.22
2019-03-09T00:39:10.772Z,55.67
2019-03-09T00:41:37.036Z,55.32
2019-03-09T00:44:03.353Z,55.59
2019-03-09T00:46:29.726Z,55.36
2019-03-09T00:48:56.038Z,55.31
2019-03-09T00:51:22.345Z,55.33
2019-03-09T00:53:48.681Z,55.59
2019-03-09T00:56:14.984Z,55.00
2019-03-09T00:58:41.295Z,53.90
2019-03-09T01:01:07.604Z,54.43
2019-03-09T01:03:33.902Z,54.15
2019-03-09T01:06:00.275Z,53.53
2019-03-09T01:08:26.583Z,54.04
2019-03-09T01:10:52.894Z,54.40
2019-03-09T01:13:19.194Z,54.04
2019-03-09T01:15:45.502Z,53.25
2019-03-09T01:18:11.815Z,53.85
2019-03-09T01:20:38.119Z,54.13
2019-03-09T01:23:04.433Z,54.26
2019-03-09T01:25:30.749Z,54.57
2019-03-09T01:27:57.065Z,55.16
2019-03-09T01:30:23.371Z,56.15
2019-03-09T01:32:49.775Z,56.07
2019-03-09T01:35:16.003Z,56.39
2019-03-09T01:37:42.312Z,56.65
2019-03-09T01:40:08.638Z,56.89
2019-03-09T01:42:34.925Z,57.24
2019-03-09T01:45:01.240Z,57.78
2019-03-09T01:47:27.548Z,57.28
2019-03-09T01:49:53.867Z,57.37
2019-03-09T01:52:20.192Z,57.73
2019-03-09T01:54:46.521Z,57.44
2019-03-09T01:57:12.828Z,57.81
2019-03-09T01:59:39.209Z,58.18
2019-03-09T02:02:05.742Z,58.36
2019-03-09T02:04:32.090Z,58.61
2019-03-09T02:06:58.405Z,58.71
2019-03-09T02:09:24.707Z,59.48
2019-03-09T02:11:51.035Z,59.60
2019-03-09T02:14:17.344Z,59.66
2019-03-09T02:16:43.656Z,59.52
2019-03-09T02:19:09.965Z,59.04
2019-03-09T02:21:36.270Z,58.54
2019-03-09T02:24:02.580Z,58.12
2019-03-09T02:26:28.891Z,58.55
2019-03-09T02:28:55.203Z,58.60
2019-03-09T02:31:21.509Z,58.31
2019-03-09T02:33:47.817Z,58.36
2019-03-09T02:36:14.170Z,58.38
2019-03-09T02:38:40.470Z,57.96
2019-03-09T02:41:06.786Z,57.51
2019-03-09T02:43:33.080Z,57.63
2019-03-09T02:45:59.388Z,57.82
2019-03-09T02:48:25.695Z,57.21
2019-03-09T02:50:52.013Z,57.85
2019-03-09T02:53:18.323Z,57.10
2019-03-09T02:55:44.632Z,56.84
2019-03-09T02:58:10.937Z,57.14
2019-03-09T03:00:37.243Z,56.67
2019-03-09T03:03:03.551Z,56.47
2019-03-09T03:05:29.874Z,57.23
2019-03-09T03:07:56.184Z,56.81
2019-03-09T03:10:22.494Z,56.57
2019-03-09T03:12:48.802Z,56.16
2019-03-09T03:15:15.107Z,56.23
2019-03-09T03:17:41.424Z,55.88
2019-03-09T03:20:07.736Z,56.20
2019-03-09T03:22:34.046Z,56.67
2019-03-09T03:25:00.462Z,57.01
2019-03-09T03:27:26.695Z,57.11
2019-03-09T03:29:52.999Z,56.00
2019-03-09T03:32:19.305Z,56.87
2019-03-09T03:34:45.622Z,57.21
2019-03-09T03:37:11.964Z,57.65
2019-03-09T03:39:38.248Z,57.95
2019-03-09T03:42:04.563Z,57.49
2019-03-09T03:44:30.903Z,57.78
2019-03-09T03:46:57.198Z,58.70
2019-03-09T03:49:23.512Z,58.92
2019-03-09T03:51:49.828Z,59.79
2019-03-09T03:54:16.125Z,60.04
2019-03-09T03:56:42.439Z,59.95
2019-03-09T03:59:08.751Z,59.81
2019-03-09T04:01:35.082Z,58.54
2019-03-09T04:04:01.386Z,59.39
2019-03-09T04:06:27.698Z,59.40
2019-03-09T04:08:54.001Z,58.62
2019-03-09T04:11:20.310Z,59.02
2019-03-09T04:13:46.626Z,58.95
2019-03-09T04:16:12.952Z,59.49
2019-03-09T04:18:39.250Z,58.81
2019-03-09T04:21:05.589Z,59.34
2019-03-09T04:23:31.928Z,59.89
2019-03-09T04:25:58.226Z,59.59
2019-03-09T04:28:24.532Z,60.51
2019-03-09T04:30:50.843Z,60.39
2019-03-09T04:33:17.149Z,60.44
2019-03-09T04:35:43.471Z,59.90
2019-03-09T04:38:09.779Z,59.24
2019-03-09T04:40:36.089Z,59.61
2019-03-09T04:43:02.394Z,59.64
2019-03-09T04:45:28.717Z,59.67
2019-03-09T04:47:55.031Z,60.64
2019-03-09T04:50:21.349Z,59.99
2019-03-09T04:52:47.650Z,59.81
2019-03-09T04:55:13.958Z,59.85
2019-03-09T04:57:40.264Z,59.24
2019-03-09T05:00:06.582Z,59.91
2019-03-09T05:02:32.915Z,58.82
2019-03-09T05:04:59.196Z,58.74
2019-03-09T05:07:25.503Z,59.35
2019-03-09T05:09:51.819Z,59.10
2019-03-09T05:12:18.121Z,58.39
2019-03-09T05:14:44.424Z,58.39
2019-03-09T05:17:10.736Z,58.86
2019-03-09T05:19:37.058Z,59.88
2019-03-09T05:22:06.227Z,61.33
2019-03-09T05:24:30.304Z,61.53
2019-03-09T05:26:56.611Z,62.56
2019-03-09T05:29:25.596Z,61.69
2019-03-09T05:31:54.115Z,60.97
2019-03-09T05:34:18.613Z,60.20
2019-03-09T05:36:45.190Z,59.84
2019-03-09T05:39:11.512Z,60.84
2019-03-09T05:41:37.904Z,59.44
2019-03-09T05:44:04.276Z,59.23
2019-03-09T05:46:30.583Z,59.89
2019-03-09T05:48:56.893Z,58.38
2019-03-09T05:51:23.211Z,57.96
2019-03-09T05:53:49.587Z,57.67
2019-03-09T05:56:15.896Z,57.69
2019-03-09T05:58:42.204Z,57.90
2019-03-09T06:01:08.548Z,57.42
2019-03-09T06:03:34.867Z,56.59
2019-03-09T06:06:01.179Z,56.36
2019-03-09T06:08:27.492Z,56.21
2019-03-09T06:10:53.805Z,56.24
2019-03-09T06:13:20.119Z,55.88
2019-03-09T06:15:46.417Z,56.09
2019-03-09T06:18:12.735Z,56.60
2019-03-09T06:20:39.040Z,56.24
2019-03-09T06:23:05.536Z,56.37
2019-03-09T06:25:31.849Z,55.94
2019-03-09T06:27:58.166Z,55.59
2019-03-09T06:30:24.471Z,55.48
2019-03-09T06:32:50.777Z,56.06
2019-03-09T06:35:17.096Z,55.87
2019-03-09T06:37:43.402Z,55.72
2019-03-09T06:40:09.715Z,55.16
2019-03-09T06:42:36.025Z,54.03
2019-03-09T06:45:02.371Z,53.57
2019-03-09T06:47:28.665Z,52.99
2019-03-09T06:49:54.977Z,53.12
2019-03-09T06:52:21.291Z,52.84
2019-03-09T06:54:47.602Z,53.16
2019-03-09T06:57:14.257Z,52.59
2019-03-09T06:59:40.233Z,52.48
2019-03-09T07:02:06.583Z,51.90
2019-03-09T07:04:32.896Z,51.37
2019-03-09T07:06:59.205Z,51.56
2019-03-09T07:09:25.757Z,51.18
2019-03-09T07:11:52.070Z,49.78
2019-03-09T07:14:18.388Z,49.16
2019-03-09T07:16:44.692Z,48.27
2019-03-09T07:19:11.011Z,47.62
2019-03-09T07:21:37.395Z,47.26
2019-03-09T07:24:03.720Z,45.79
2019-03-09T07:26:30.011Z,44.31
2019-03-09T07:28:56.326Z,43.43
2019-03-09T07:31:22.647Z,42.49
2019-03-09T07:33:48.965Z,41.72
2019-03-09T07:36:15.278Z,40.83
2019-03-09T07:38:41.589Z,39.86
2019-03-09T07:41:07.901Z,39.82
2019-03-09T07:43:34.208Z,38.88
2019-03-09T07:46:00.520Z,38.48
2019-03-09T07:48:26.824Z,38.14
2019-03-09T07:50:53.178Z,37.61
2019-03-09T07:53:19.461Z,37.43
2019-03-09T07:55:45.774Z,37.86
2019-03-09T07:58:12.087Z,35.90
2019-03-09T08:00:38.401Z,35.44
2019-03-09T08:03:04.718Z,35.36
2019-03-09T08:05:31.023Z,34.89
2019-03-09T08:07:57.337Z,33.76
2019-03-09T08:10:23.656Z,33.06
2019-03-09T08:12:49.966Z,32.89
2019-03-09T08:15:16.276Z,32.95
2019-03-09T08:17:42.623Z,32.53
2019-03-09T08:20:08.937Z,32.47
2019-03-09T08:22:35.259Z,32.28
2019-03-09T08:25:01.645Z,32.44
2019-03-09T08:27:27.992Z,31.80
2019-03-09T08:29:54.343Z,31.31
2019-03-09T08:32:20.708Z,30.97
2019-03-09T08:34:47.032Z,31.80
2019-03-09T08:37:13.346Z,30.78
2019-03-09T08:39:39.680Z,30.05
2019-03-09T08:42:06.016Z,31.18
2019-03-09T08:44:32.323Z,31.65
2019-03-09T08:46:58.640Z,30.93
2019-03-09T08:49:24.957Z,31.39
2019-03-09T08:51:51.289Z,31.30
2019-03-09T08:54:17.571Z,30.54
2019-03-09T08:56:43.920Z,31.11
2019-03-09T08:59:10.225Z,30.95
2019-03-09T09:01:36.505Z,30.40
2019-03-09T09:04:02.813Z,30.77
2019-03-09T09:06:29.121Z,30.14
2019-03-09T09:08:55.433Z,30.16
2019-03-09T09:11:21.810Z,29.71
2019-03-09T09:13:48.121Z,29.89
2019-03-09T09:16:14.425Z,29.57
2019-03-09T09:18:40.731Z,29.29
2019-03-09T09:21:07.037Z,29.07
2019-03-09T09:23:33.347Z,29.24
2019-03-09T09:25:59.659Z,29.04
2019-03-09T09:28:25.977Z,28.74
2019-03-09T09:30:52.284Z,29.63
2019-03-09T09:33:18.632Z,29.57
2019-03-09T09:35:44.992Z,29.48
2019-03-09T09:38:11.333Z,29.18
2019-03-09T09:40:37.624Z,29.31
2019-03-09T09:43:03.934Z,28.76
2019-03-09T09:45:30.249Z,28.94
2019-03-09T09:47:56.558Z,29.67
2019-03-09T09:50:23.177Z,29.32
2019-03-09T09:52:49.493Z,30.27
2019-03-09T09:55:15.802Z,29.73
2019-03-09T09:57:42.113Z,29.34
2019-03-09T10:00:08.431Z,28.06
2019-03-09T10:02:35.714Z,27.98
2019-03-09T10:05:01.075Z,27.20
2019-03-09T10:07:27.391Z,27.56
2019-03-09T10:09:53.697Z,28.32
2019-03-09T10:12:20.009Z,28.17
2019-03-09T10:14:46.321Z,28.10
2019-03-09T10:17:12.638Z,28.69
2019-03-09T10:19:38.950Z,28.83
2019-03-09T10:22:05.311Z,29.25
2019-03-09T10:24:31.618Z,29.40
2019-03-09T10:26:57.926Z,29.84
2019-03-09T10:29:24.241Z,29.43
2019-03-09T10:31:50.602Z,29.00
2019-03-09T10:34:16.859Z,28.67
2019-03-09T10:36:43.176Z,28.36
2019-03-09T10:39:09.489Z,28.53
2019-03-09T10:41:35.799Z,27.98
2019-03-09T10:44:02.148Z,27.75
2019-03-09T10:46:28.458Z,27.64
2019-03-09T10:48:54.854Z,27.78
2019-03-09T10:51:21.161Z,27.63
2019-03-09T10:53:47.693Z,27.02
2019-03-09T10:56:13.984Z,26.57
2019-03-09T10:58:40.298Z,25.82
2019-03-09T11:01:06.608Z,26.93
2019-03-09T11:03:32.926Z,27.78
2019-03-09T11:05:59.238Z,29.00
2019-03-09T11:08:25.539Z,28.60
2019-03-09T11:10:51.848Z,28.96
2019-03-09T11:13:18.161Z,28.46
2019-03-09T11:15:44.502Z,28.32
2019-03-09T11:18:10.807Z,27.83
2019-03-09T11:20:37.117Z,27.19
2019-03-09T11:23:03.453Z,26.51
2019-03-09T11:25:29.894Z,26.06
2019-03-09T11:27:56.210Z,25.57
2019-03-09T11:30:22.543Z,27.13
2019-03-09T11:32:58.160Z,26.94
2019-03-09T11:35:24.472Z,27.17
2019-03-09T11:37:50.855Z,26.83
2019-03-09T11:40:17.098Z,26.85
2019-03-09T11:42:43.413Z,26.11
2019-03-09T11:45:09.731Z,26.67
2019-03-09T11:47:36.047Z,26.25
2019-03-09T11:50:02.358Z,26.68
2019-03-09T11:52:29.278Z,27.38
2019-03-09T11:54:54.981Z,28.46
2019-03-09T11:57:21.293Z,27.55
2019-03-09T11:59:47.619Z,27.37
2019-03-09T12:02:13.939Z,26.55
2019-03-09T12:04:46.747Z,27.34
2019-03-09T12:07:06.549Z,27.84
2019-03-09T12:09:32.855Z,28.39
2019-03-09T12:11:59.176Z,29.11
2019-03-09T12:14:25.482Z,29.09
2019-03-09T12:16:51.797Z,27.80
2019-03-09T12:19:18.111Z,28.18
2019-03-09T12:21:44.876Z,29.39
2019-03-09T12:24:16.477Z,29.54
2019-03-09T12:26:37.491Z,29.74
2019-03-09T12:29:04.097Z,28.14
2019-03-09T12:31:30.406Z,27.78
2019-03-09T12:33:56.752Z,27.28
2019-03-09T12:36:23.062Z,27.68
2019-03-09T12:38:49.379Z,28.17
2019-03-09T12:41:15.691Z,29.23
2019-03-09T12:43:42.003Z,28.80
2019-03-09T12:46:08.411Z,29.50
2019-03-09T12:48:34.725Z,29.62
2019-03-09T12:51:01.031Z,29.95
2019-03-09T12:53:27.341Z,30.51
2019-03-09T12:55:53.649Z,30.28
2019-03-09T12:58:19.968Z,30.24
2019-03-09T13:00:46.274Z,30.24
2019-03-09T13:03:12.591Z,30.21
2019-03-09T13:05:38.899Z,30.45
2019-03-09T13:08:05.225Z,30.68
2019-03-09T13:10:31.529Z,30.65
2019-03-09T13:12:57.917Z,30.65
2019-03-09T13:15:24.169Z,30.29
2019-03-09T13:17:50.477Z,29.75
2019-03-09T13:20:16.786Z,29.79
2019-03-09T13:22:43.094Z,29.39
2019-03-09T13:25:09.406Z,28.77
2019-03-09T13:27:35.716Z,28.34
2019-03-09T13:30:02.033Z,28.82
2019-03-09T13:32:28.380Z,29.37
2019-03-09T13:34:54.712Z,29.19
2019-03-09T13:37:21.057Z,29.60
2019-03-09T13:39:47.366Z,29.63
2019-03-09T13:42:13.636Z,30.00
2019-03-09T13:44:39.954Z,29.86
2019-03-09T13:47:06.322Z,30.34
2019-03-09T13:49:32.581Z,30.56
2019-03-09T13:51:58.959Z,30.11
2019-03-09T13:54:25.264Z,29.94
2019-03-09T13:56:51.575Z,29.27
2019-03-09T13:59:17.886Z,29.65
2019-03-09T14:01:44.236Z,29.39
2019-03-09T14:04:10.550Z,29.27
2019-03-09T14:06:36.856Z,29.38
2019-03-09T14:09:03.184Z,29.37
2019-03-09T14:11:29.516Z,29.43
2019-03-09T14:13:55.833Z,29.37
2019-03-09T14:16:22.147Z,29.43
2019-03-09T14:18:48.483Z,29.56
2019-03-09T14:21:14.793Z,29.74
2019-03-09T14:23:41.103Z,29.58
2019-03-09T14:26:07.410Z,29.52
2019-03-09T14:28:33.724Z,29.61
2019-03-09T14:31:00.040Z,29.37
2019-03-09T14:33:28.650Z,29.37
2019-03-09T14:35:52.666Z,29.54
2019-03-09T14:38:19.003Z,30.13
2019-03-09T14:40:45.341Z,30.45
2019-03-09T14:43:11.669Z,30.58
2019-03-09T14:45:37.973Z,30.03
2019-03-09T14:48:04.280Z,30.03
2019-03-09T14:50:30.635Z,29.83
2019-03-09T14:52:56.948Z,30.65
2019-03-09T14:55:23.258Z,30.23
2019-03-09T14:57:49.598Z,30.17
2019-03-09T15:00:15.904Z,29.94
2019-03-09T15:02:42.270Z,29.73
2019-03-09T15:05:08.607Z,29.61
2019-03-09T15:07:34.912Z,29.98
2019-03-09T15:10:01.228Z,29.90
2019-03-09T15:12:27.531Z,30.61
2019-03-09T15:14:53.869Z,30.09
2019-03-09T15:17:20.181Z,30.41
2019-03-09T15:19:46.496Z,30.42
2019-03-09T15:22:12.850Z,30.67
2019-03-09T15:24:39.121Z,30.93
2019-03-09T15:27:05.430Z,31.08
2019-03-09T15:29:32.771Z,31.13
2019-03-09T15:31:58.083Z,31.49
2019-03-09T15:34:24.392Z,31.49
2019-03-09T15:36:50.724Z,31.34
2019-03-09T15:39:17.071Z,31.05
2019-03-09T15:41:43.345Z,30.89
2019-03-09T15:44:09.656Z,30.38
2019-03-09T15:46:35.969Z,29.95
2019-03-09T15:49:02.278Z,29.98
2019-03-09T15:51:28.633Z,30.22
2019-03-09T15:53:54.913Z,29.84
2019-03-09T15:56:21.219Z,29.98
2019-03-09T15:58:47.589Z,29.88
2019-03-09T16:01:13.900Z,29.67
2019-03-09T16:03:40.287Z,30.04
2019-03-09T16:06:06.582Z,29.82
2019-03-09T16:08:32.882Z,30.31
2019-03-09T16:10:59.194Z,29.84
2019-03-09T16:13:25.501Z,29.93
2019-03-09T16:15:51.815Z,30.08
2019-03-09T16:18:18.169Z,30.18
2019-03-09T16:20:44.480Z,30.41
2019-03-09T16:23:10.792Z,30.37
2019-03-09T16:25:37.111Z,30.32
2019-03-09T16:28:03.490Z,30.78
2019-03-09T16:30:29.752Z,31.05
2019-03-09T16:32:56.064Z,30.85
2019-03-09T16:35:22.371Z,31.31
2019-03-09T16:37:48.685Z,31.34
2019-03-09T16:40:15.002Z,31.51
2019-03-09T16:42:41.406Z,31.47
2019-03-09T16:45:07.712Z,31.18
2019-03-09T16:47:34.051Z,31.06
2019-03-09T16:50:00.352Z,31.39
2019-03-09T16:52:26.746Z,31.49
2019-03-09T16:54:53.057Z,31.71
2019-03-09T16:57:19.364Z,31.50
2019-03-09T16:59:45.732Z,31.63
2019-03-09T17:02:12.151Z,31.82
2019-03-09T17:04:38.519Z,32.01
2019-03-09T17:07:04.830Z,32.13
2019-03-09T17:09:31.144Z,32.32
2019-03-09T17:11:57.452Z,32.16
2019-03-09T17:14:23.760Z,32.42
2019-03-09T17:16:50.072Z,32.73
2019-03-09T17:19:16.394Z,32.94
2019-03-09T17:21:42.706Z,33.12
2019-03-09T17:24:09.014Z,33.29
2019-03-09T17:26:38.522Z,33.45
2019-03-09T17:29:05.281Z,33.41
2019-03-09T17:31:31.593Z,33.65
2019-03-09T17:33:57.925Z,33.70
2019-03-09T17:36:24.228Z,36.58
2019-03-09T17:38:50.537Z,39.06
2019-03-09T17:41:16.850Z,41.49
2019-03-09T17:43:43.165Z,43.08
2019-03-09T17:46:09.464Z,44.45
2019-03-09T17:48:35.808Z,46.17
2019-03-09T17:51:02.117Z,46.60
2019-03-09T17:53:28.450Z,47.79
2019-03-09T17:55:54.779Z,48.79
2019-03-09T17:58:21.104Z,48.77
2019-03-09T18:00:47.416Z,48.98
2019-03-09T18:03:13.739Z,48.99
2019-03-09T18:05:40.055Z,48.89
2019-03-09T18:08:06.362Z,49.31
2019-03-09T18:10:32.697Z,49.57
2019-03-09T18:12:59.030Z,50.21
2019-03-09T18:15:25.328Z,51.01
2019-03-09T18:17:51.641Z,51.44
2019-03-09T18:20:17.950Z,51.87
2019-03-09T18:22:44.260Z,52.72
2019-03-09T18:25:10.575Z,53.20
2019-03-09T18:27:36.934Z,54.35
2019-03-09T18:30:03.243Z,55.04
2019-03-09T18:32:29.600Z,55.57
2019-03-09T18:34:55.915Z,55.84
2019-03-09T18:37:22.222Z,56.48
2019-03-09T18:39:48.557Z,56.14
2019-03-09T18:42:14.864Z,55.73
2019-03-09T18:44:41.193Z,55.82
2019-03-09T18:47:07.506Z,55.38
2019-03-09T18:49:33.849Z,55.44
2019-03-09T18:52:00.156Z,55.94
2019-03-09T18:54:26.462Z,56.11
2019-03-09T18:56:52.771Z,55.70
2019-03-09T18:59:19.085Z,55.49
2019-03-09T19:01:45.408Z,55.84
2019-03-09T19:04:11.788Z,55.44
2019-03-09T19:06:38.102Z,54.80
2019-03-09T19:09:04.410Z,55.07
2019-03-09T19:11:30.740Z,54.54
2019-03-09T19:13:57.052Z,54.03
2019-03-09T19:16:23.358Z,53.82
2019-03-09T19:18:49.669Z,53.62
2019-03-09T19:21:15.975Z,53.91
2019-03-09T19:23:42.279Z,54.24
2019-03-09T19:26:08.589Z,54.32
2019-03-09T19:28:34.901Z,54.69
2019-03-09T19:31:01.221Z,55.12
2019-03-09T19:33:27.533Z,54.94
2019-03-09T19:35:53.841Z,55.20
2019-03-09T19:38:20.181Z,55.72
2019-03-09T19:40:46.505Z,55.91
2019-03-09T19:43:12.824Z,55.94
2019-03-09T19:45:39.147Z,56.19
2019-03-09T19:48:05.468Z,56.10
2019-03-09T19:50:31.781Z,56.72
2019-03-09T19:52:59.092Z,56.27
2019-03-09T19:55:24.414Z,55.61
2019-03-09T19:57:50.722Z,55.39
2019-03-09T20:00:17.035Z,55.54
2019-03-09T20:02:43.353Z,55.37
2019-03-09T20:05:09.661Z,55.76
2019-03-09T20:07:35.981Z,55.53
2019-03-09T20:10:02.303Z,55.29
2019-03-09T20:12:28.642Z,55.18
2019-03-09T20:14:54.947Z,55.54
2019-03-09T20:17:21.269Z,55.47
2019-03-09T20:19:47.578Z,55.83
2019-03-09T20:22:13.890Z,56.18
2019-03-09T20:24:40.252Z,56.53
2019-03-09T20:27:06.567Z,56.15
2019-03-09T20:29:32.880Z,55.94
2019-03-09T20:31:59.190Z,55.68
2019-03-09T20:34:25.514Z,56.09
2019-03-09T20:36:51.830Z,56.51
2019-03-09T20:39:18.131Z,56.87
2019-03-09T20:41:44.470Z,56.88
2019-03-09T20:44:10.783Z,56.60
2019-03-09T20:46:41.803Z,56.84
2019-03-09T20:49:03.424Z,57.16
2019-03-09T20:51:29.757Z,57.84
2019-03-09T20:53:56.066Z,57.77
2019-03-09T20:56:22.374Z,58.43
2019-03-09T20:58:48.695Z,58.30
2019-03-09T21:01:15.001Z,58.56
2019-03-09T21:03:41.319Z,59.37
2019-03-09T21:06:07.646Z,59.92
2019-03-09T21:08:34.001Z,59.59
2019-03-09T21:11:03.867Z,59.65
2019-03-09T21:13:26.568Z,59.91
2019-03-09T21:15:52.874Z,60.57
2019-03-09T21:18:19.183Z,60.82
2019-03-09T21:20:45.496Z,61.21
2019-03-09T21:23:11.820Z,61.28
2019-03-09T21:25:38.138Z,61.61
2019-03-09T21:28:04.447Z,61.74
2019-03-09T21:30:30.786Z,61.74
2019-03-09T21:32:57.097Z,61.65
2019-03-09T21:35:23.425Z,62.08
2019-03-09T21:37:49.739Z,62.03
2019-03-09T21:40:16.044Z,62.52
2019-03-09T21:42:42.363Z,62.97
2019-03-09T21:45:08.670Z,62.39
2019-03-09T21:47:34.976Z,63.13
2019-03-09T21:50:01.292Z,63.78
2019-03-09T21:52:27.607Z,64.00
2019-03-09T21:54:53.915Z,64.06
2019-03-09T21:57:20.231Z,64.07
2019-03-09T21:59:46.541Z,64.51
2019-03-09T22:02:12.849Z,64.85
2019-03-09T22:04:39.156Z,65.01
2019-03-09T22:07:05.472Z,65.37
2019-03-09T22:09:31.786Z,65.54
2019-03-09T22:11:58.133Z,65.34
2019-03-09T22:14:24.444Z,65.19
2019-03-09T22:16:56.534Z,65.39
2019-03-09T22:19:17.071Z,66.25
2019-03-09T22:21:43.381Z,66.00
2019-03-09T22:24:09.701Z,65.14
2019-03-09T22:26:36.012Z,65.13
2019-03-09T22:29:02.322Z,64.68
2019-03-09T22:31:28.631Z,64.96
2019-03-09T22:33:55.008Z,64.46
2019-03-09T22:36:21.316Z,64.59
2019-03-09T22:38:47.635Z,64.03
2019-03-09T22:41:13.945Z,64.49
2019-03-09T22:43:40.310Z,64.79
2019-03-09T22:46:06.622Z,64.45
2019-03-09T22:48:32.940Z,64.87
2019-03-09T22:50:59.239Z,63.99
2019-03-09T22:53:25.544Z,63.68
2019-03-09T22:55:51.861Z,64.26
2019-03-09T22:58:18.175Z,64.81
2019-03-09T23:00:44.492Z,65.60
2019-03-09T23:03:10.823Z,65.41
2019-03-09T23:05:37.139Z,65.84
2019-03-09T23:08:03.461Z,66.48
2019-03-09T23:10:29.784Z,66.97
2019-03-09T23:12:56.137Z,67.51
2019-03-09T23:15:22.442Z,67.80
2019-03-09T23:17:48.764Z,67.81
2019-03-09T23:20:15.071Z,68.11
2019-03-09T23:22:41.382Z,67.47
2019-03-09T23:25:07.690Z,68.21
2019-03-09T23:27:34.034Z,68.05
2019-03-09T23:30:00.389Z,68.24
2019-03-09T23:32:26.653Z,68.75
2019-03-09T23:34:52.959Z,68.98
2019-03-09T23:37:19.272Z,69.09
2019-03-09T23:39:45.613Z,69.15
2019-03-09T23:42:11.921Z,69.58
2019-03-09T23:44:38.233Z,70.12
2019-03-09T23:47:04.547Z,69.85
2019-03-09T23:49:30.934Z,68.85
2019-03-09T23:51:57.251Z,68.51
2019-03-09T23:54:23.555Z,68.54
2019-03-09T23:56:49.869Z,69.03
2019-03-09T23:59:16.182Z,69.03
